Time,TemperatureF,DewpointF,PressureIn,WindDirection,WindDirectionDegrees,WindSpeedMPH,WindSpeedGustMPH,Humidity,HourlyPrecipIn,Conditions,Clouds,dailyrainin,SolarRadiationWatts/m^2,SoftwareType,DateUTC
2013-03-17 00:02:00,8.0,-2.0,-100.00,West,263,3.0,6.0,63,0.00,,,0.00,0.000000,,2013-03-17 08:02:00,
2013-03-17 00:12:00,8.0,-2.0,-100.00,West,263,3.0,6.0,63,0.00,,,0.00,0.000000,,2013-03-17 08:12:00,
2013-03-17 00:22:00,8.0,-2.0,-100.00,West,263,3.0,6.0,63,0.00,,,0.00,0.000000,,2013-03-17 08:22:00,
2013-03-17 00:32:00,8.0,-2.0,-100.00,West,263,3.0,6.0,63,0.00,,,0.00,0.000000,,2013-03-17 08:32:00,
2013-03-17 00:52:00,7.0,-3.0,-100.00,WSW,237,2.0,4.0,64,0.00,,,0.00,0.000000,,2013-03-17 08:52:00,
2013-03-17 01:02:00,7.0,-3.0,-100.00,WSW,237,2.0,4.0,64,0.00,,,0.00,0.000000,,2013-03-17 09:02:00,
2013-03-17 01:12:00,7.0,-3.0,-100.00,WSW,237,2.0,4.0,64,0.00,,,0.00,0.000000,,2013-03-17 09:12:00,
2013-03-17 01:22:00,7.0,-3.0,-100.00,WSW,237,2.0,4.0,64,0.00,,,0.00,0.000000,,2013-03-17 09:22:00,
2013-03-17 01:32:00,7.0,-3.0,-100.00,WSW,237,2.0,4.0,64,0.00,,,0.00,0.000000,,2013-03-17 09:32:00,
2013-03-17 01:33:00,7.0,-3.0,-100.00,West,266,3.0,5.0,64,0.00,,,0.00,0.000000,,2013-03-17 09:33:00,
2013-03-17 01:53:00,7.0,-3.0,-100.00,West,266,3.0,5.0,64,0.00,,,0.00,0.000000,,2013-03-17 09:53:00,
2013-03-17 02:03:00,7.0,-3.0,-100.00,West,266,3.0,5.0,64,0.00,,,0.00,0.000000,,2013-03-17 10:03:00,
2013-03-17 02:12:00,7.0,-3.0,-100.00,West,266,3.0,5.0,64,0.00,,,0.00,0.000000,,2013-03-17 10:12:00,
2013-03-17 02:23:00,7.0,-3.0,-100.00,West,266,3.0,5.0,64,0.00,,,0.00,0.000000,,2013-03-17 10:23:00,
2013-03-17 02:52:00,6.0,-2.0,-100.00,NW,321,2.0,3.0,68,0.00,,,0.00,0.000000,,2013-03-17 10:52:00,
2013-03-17 03:02:00,6.0,-2.0,-100.00,NW,321,2.0,3.0,68,0.00,,,0.00,0.000000,,2013-03-17 11:02:00,
2013-03-17 03:12:00,6.0,-2.0,-100.00,NW,321,2.0,3.0,68,0.00,,,0.00,0.000000,,2013-03-17 11:12:00,
2013-03-17 03:22:00,6.0,-2.0,-100.00,NW,321,2.0,3.0,68,0.00,,,0.00,0.000000,,2013-03-17 11:22:00,
2013-03-17 03:32:00,6.0,-2.0,-100.00,NW,321,2.0,3.0,68,0.00,,,0.00,0.000000,,2013-03-17 11:32:00,
2013-03-17 03:52:00,5.0,-3.0,-100.00,NW,311,2.0,4.0,70,0.00,,,0.00,0.000000,,2013-03-17 11:52:00,
2013-03-17 04:02:00,5.0,-3.0,-100.00,NW,311,2.0,4.0,70,0.00,,,0.00,0.000000,,2013-03-17 12:02:00,
2013-03-17 04:12:00,5.0,-3.0,-100.00,NW,311,2.0,4.0,70,0.00,,,0.00,0.000000,,2013-03-17 12:12:00,
2013-03-17 04:22:00,5.0,-3.0,-100.00,NW,311,2.0,4.0,70,0.00,,,0.00,0.000000,,2013-03-17 12:22:00,
2013-03-17 04:32:00,5.0,-3.0,-100.00,NW,311,2.0,4.0,70,0.00,,,0.00,0.000000,,2013-03-17 12:32:00,
2013-03-17 04:52:00,4.0,-3.0,-100.00,WSW,257,2.0,3.0,72,0.00,,,0.00,0.000000,,2013-03-17 12:52:00,
2013-03-17 05:02:00,4.0,-3.0,-100.00,WSW,257,2.0,3.0,72,0.00,,,0.00,0.000000,,2013-03-17 13:02:00,
2013-03-17 05:12:00,4.0,-3.0,-100.00,WSW,257,2.0,3.0,72,0.00,,,0.00,0.000000,,2013-03-17 13:12:00,
2013-03-17 05:22:00,4.0,-3.0,-100.00,WSW,257,2.0,3.0,72,0.00,,,0.00,0.000000,,2013-03-17 13:22:00,
2013-03-17 05:32:00,4.0,-3.0,-100.00,WSW,257,2.0,3.0,72,0.00,,,0.00,0.000000,,2013-03-17 13:32:00,
2013-03-17 05:52:00,4.0,-3.0,-100.00,WNW,300,2.0,4.0,71,0.00,,,0.00,0.000000,,2013-03-17 13:52:00,
2013-03-17 06:02:00,4.0,-3.0,-100.00,WNW,300,2.0,4.0,71,0.00,,,0.00,0.000000,,2013-03-17 14:02:00,
2013-03-17 06:12:00,4.0,-3.0,-100.00,WNW,300,2.0,4.0,71,0.00,,,0.00,0.000000,,2013-03-17 14:12:00,
2013-03-17 06:22:00,4.0,-3.0,-100.00,WNW,300,2.0,4.0,71,0.00,,,0.00,0.000000,,2013-03-17 14:22:00,
2013-03-17 06:32:00,4.0,-3.0,-100.00,WNW,300,2.0,4.0,71,0.00,,,0.00,0.000000,,2013-03-17 14:32:00,
2013-03-17 06:52:00,4.0,-3.0,-100.00,WNW,302,2.0,5.0,72,0.00,,,0.00,0.000000,,2013-03-17 14:52:00,
2013-03-17 07:02:00,4.0,-3.0,-100.00,WNW,302,2.0,5.0,72,0.00,,,0.00,0.000000,,2013-03-17 15:02:00,
2013-03-17 07:12:00,4.0,-3.0,-100.00,WNW,302,2.0,5.0,72,0.00,,,0.00,0.000000,,2013-03-17 15:12:00,
2013-03-17 07:22:00,4.0,-3.0,-100.00,WNW,302,2.0,5.0,72,0.00,,,0.00,0.000000,,2013-03-17 15:22:00,
2013-03-17 07:32:00,4.0,-3.0,-100.00,WNW,302,2.0,5.0,72,0.00,,,0.00,0.000000,,2013-03-17 15:32:00,
2013-03-17 07:53:00,3.0,-4.0,-100.00,West,278,1.0,4.0,71,0.00,,,0.00,0.000000,,2013-03-17 15:53:00,
2013-03-17 08:03:00,3.0,-4.0,-100.00,West,278,1.0,4.0,71,0.00,,,0.00,0.000000,,2013-03-17 16:03:00,
2013-03-17 08:12:00,3.0,-4.0,-100.00,West,278,1.0,4.0,71,0.00,,,0.00,0.000000,,2013-03-17 16:12:00,
2013-03-17 08:22:00,3.0,-4.0,-100.00,West,278,1.0,4.0,71,0.00,,,0.00,0.000000,,2013-03-17 16:22:00,
2013-03-17 08:32:00,3.0,-4.0,-100.00,West,278,1.0,4.0,71,0.00,,,0.00,0.000000,,2013-03-17 16:32:00,
2013-03-17 08:52:00,3.0,-4.0,-100.00,WNW,283,2.0,4.0,71,0.00,,,0.00,12.000000,,2013-03-17 16:52:00,
2013-03-17 09:02:00,3.0,-4.0,-100.00,WNW,283,2.0,4.0,71,0.00,,,0.00,12.000000,,2013-03-17 17:02:00,
2013-03-17 09:12:00,3.0,-4.0,-100.00,WNW,283,2.0,4.0,71,0.00,,,0.00,12.000000,,2013-03-17 17:12:00,
2013-03-17 09:22:00,3.0,-4.0,-100.00,WNW,283,2.0,4.0,71,0.00,,,0.00,12.000000,,2013-03-17 17:22:00,
2013-03-17 09:32:00,3.0,-4.0,-100.00,WNW,283,2.0,4.0,71,0.00,,,0.00,12.000000,,2013-03-17 17:32:00,
2013-03-17 09:53:00,3.0,-4.0,-100.00,West,272,1.0,3.0,71,0.00,,,0.00,174.000000,,2013-03-17 17:53:00,
2013-03-17 10:02:00,3.0,-4.0,-100.00,West,272,1.0,3.0,71,0.00,,,0.00,174.000000,,2013-03-17 18:02:00,
2013-03-17 10:12:00,3.0,-4.0,-100.00,West,272,1.0,3.0,71,0.00,,,0.00,174.000000,,2013-03-17 18:12:00,
2013-03-17 10:22:00,3.0,-4.0,-100.00,West,272,1.0,3.0,71,0.00,,,0.00,174.000000,,2013-03-17 18:22:00,
2013-03-17 10:32:00,3.0,-4.0,-100.00,West,272,1.0,3.0,71,0.00,,,0.00,174.000000,,2013-03-17 18:32:00,
2013-03-17 10:52:00,6.0,-4.0,-100.00,West,275,1.0,4.0,62,0.00,,,0.00,297.000000,,2013-03-17 18:52:00,
2013-03-17 11:02:00,6.0,-4.0,-100.00,West,275,1.0,4.0,62,0.00,,,0.00,297.000000,,2013-03-17 19:02:00,
2013-03-17 11:12:00,6.0,-4.0,-100.00,West,275,1.0,4.0,62,0.00,,,0.00,297.000000,,2013-03-17 19:12:00,
2013-03-17 11:22:00,6.0,-4.0,-100.00,West,275,1.0,4.0,62,0.00,,,0.00,297.000000,,2013-03-17 19:22:00,
2013-03-17 11:32:00,6.0,-4.0,-100.00,West,275,1.0,4.0,62,0.00,,,0.00,297.000000,,2013-03-17 19:32:00,
2013-03-17 11:53:00,7.0,-4.0,-100.00,WNW,283,1.0,4.0,59,0.00,,,0.00,399.000000,,2013-03-17 19:53:00,
2013-03-17 12:02:00,7.0,-4.0,-100.00,WNW,283,1.0,4.0,59,0.00,,,0.00,399.000000,,2013-03-17 20:02:00,
2013-03-17 12:12:00,7.0,-4.0,-100.00,WNW,283,1.0,4.0,59,0.00,,,0.00,399.000000,,2013-03-17 20:12:00,
2013-03-17 12:22:00,7.0,-4.0,-100.00,WNW,283,1.0,4.0,59,0.00,,,0.00,399.000000,,2013-03-17 20:22:00,
2013-03-17 12:32:00,7.0,-4.0,-100.00,WNW,283,1.0,4.0,59,0.00,,,0.00,399.000000,,2013-03-17 20:32:00,
2013-03-17 12:52:00,10.0,-3.0,-100.00,NNE,13,1.0,2.0,54,0.00,,,0.00,464.000000,,2013-03-17 20:52:00,
2013-03-17 13:02:00,10.0,-3.0,-100.00,NNE,13,1.0,2.0,54,0.00,,,0.00,464.000000,,2013-03-17 21:02:00,
2013-03-17 13:12:00,10.0,-3.0,-100.00,NNE,13,1.0,2.0,54,0.00,,,0.00,464.000000,,2013-03-17 21:12:00,
2013-03-17 13:22:00,10.0,-3.0,-100.00,NNE,13,1.0,2.0,54,0.00,,,0.00,464.000000,,2013-03-17 21:22:00,
2013-03-17 13:32:00,10.0,-3.0,-100.00,NNE,13,1.0,2.0,54,0.00,,,0.00,464.000000,,2013-03-17 21:32:00,
2013-03-17 13:33:00,10.0,-2.0,-100.00,SW,219,1.0,3.0,58,0.00,,,0.00,490.000000,,2013-03-17 21:33:00,
2013-03-17 13:52:00,10.0,-2.0,-100.00,SW,219,1.0,3.0,58,0.00,,,0.00,490.000000,,2013-03-17 21:52:00,
2013-03-17 14:03:00,10.0,-2.0,-100.00,SW,219,1.0,3.0,58,0.00,,,0.00,490.000000,,2013-03-17 22:03:00,
2013-03-17 14:12:00,10.0,-2.0,-100.00,SW,219,1.0,3.0,58,0.00,,,0.00,490.000000,,2013-03-17 22:12:00,
2013-03-17 14:23:00,10.0,-2.0,-100.00,SW,219,1.0,3.0,58,0.00,,,0.00,490.000000,,2013-03-17 22:23:00,
2013-03-17 14:53:00,10.0,-1.0,-100.00,SW,233,1.0,3.0,60,0.00,,,0.00,476.000000,,2013-03-17 22:53:00,
2013-03-17 15:02:00,10.0,-1.0,-100.00,SW,233,1.0,3.0,60,0.00,,,0.00,476.000000,,2013-03-17 23:02:00,
2013-03-17 15:12:00,10.0,-1.0,-100.00,SW,233,1.0,3.0,60,0.00,,,0.00,476.000000,,2013-03-17 23:12:00,
2013-03-17 15:22:00,10.0,-1.0,-100.00,SW,233,1.0,3.0,60,0.00,,,0.00,476.000000,,2013-03-17 23:22:00,
2013-03-17 15:32:00,10.0,-1.0,-100.00,SW,233,1.0,3.0,60,0.00,,,0.00,476.000000,,2013-03-17 23:32:00,
2013-03-17 15:53:00,11.0,-1.0,-100.00,NW,323,1.0,3.0,58,0.00,,,0.00,424.000000,,2013-03-17 23:53:00,
2013-03-17 16:03:00,11.0,-1.0,-100.00,NW,323,1.0,3.0,58,0.00,,,0.00,424.000000,,2013-03-18 00:03:00,
2013-03-17 16:12:00,11.0,-1.0,-100.00,NW,323,1.0,3.0,58,0.00,,,0.00,424.000000,,2013-03-18 00:12:00,
2013-03-17 16:22:00,11.0,-1.0,-100.00,NW,323,1.0,3.0,58,0.00,,,0.00,424.000000,,2013-03-18 00:22:00,
2013-03-17 16:32:00,11.0,-1.0,-100.00,NW,323,1.0,3.0,58,0.00,,,0.00,424.000000,,2013-03-18 00:32:00,
2013-03-17 16:52:00,10.0,-2.0,-100.00,NW,305,1.0,4.0,58,0.00,,,0.00,334.000000,,2013-03-18 00:52:00,
2013-03-17 17:01:00,10.0,-2.0,-100.00,NW,305,1.0,4.0,58,0.00,,,0.00,334.000000,,2013-03-18 01:01:00,
2013-03-17 17:12:00,10.0,-2.0,-100.00,NW,305,1.0,4.0,58,0.00,,,0.00,334.000000,,2013-03-18 01:12:00,
2013-03-17 17:22:00,10.0,-2.0,-100.00,NW,305,1.0,4.0,58,0.00,,,0.00,334.000000,,2013-03-18 01:22:00,
2013-03-17 17:31:00,10.0,-2.0,-100.00,NW,305,1.0,4.0,58,0.00,,,0.00,334.000000,,2013-03-18 01:31:00,
2013-03-17 17:52:00,9.0,0.0,-100.00,WNW,299,2.0,3.0,66,0.00,,,0.00,232.000000,,2013-03-18 01:52:00,
2013-03-17 18:02:00,9.0,0.0,-100.00,WNW,299,2.0,3.0,66,0.00,,,0.00,232.000000,,2013-03-18 02:02:00,
2013-03-17 18:12:00,9.0,0.0,-100.00,WNW,299,2.0,3.0,66,0.00,,,0.00,232.000000,,2013-03-18 02:12:00,
2013-03-17 18:22:00,9.0,0.0,-100.00,WNW,299,2.0,3.0,66,0.00,,,0.00,232.000000,,2013-03-18 02:22:00,
2013-03-17 18:32:00,9.0,0.0,-100.00,WNW,299,2.0,3.0,66,0.00,,,0.00,232.000000,,2013-03-18 02:32:00,
2013-03-17 18:52:00,8.0,-1.0,-100.00,NNW,330,2.0,4.0,66,0.00,,,0.00,108.000000,,2013-03-18 02:52:00,
2013-03-17 19:02:00,8.0,-1.0,-100.00,NNW,330,2.0,4.0,66,0.00,,,0.00,108.000000,,2013-03-18 03:02:00,
2013-03-17 19:11:00,8.0,-1.0,-100.00,NNW,330,2.0,4.0,66,0.00,,,0.00,108.000000,,2013-03-18 03:11:00,
2013-03-17 19:22:00,8.0,-1.0,-100.00,NNW,330,2.0,4.0,66,0.00,,,0.00,108.000000,,2013-03-18 03:22:00,
2013-03-17 19:32:00,8.0,-1.0,-100.00,NNW,330,2.0,4.0,66,0.00,,,0.00,108.000000,,2013-03-18 03:32:00,
2013-03-17 19:33:00,7.0,-2.0,-100.00,West,278,2.0,4.0,65,0.00,,,0.00,18.000000,,2013-03-18 03:33:00,
2013-03-17 19:53:00,7.0,-2.0,-100.00,West,278,2.0,4.0,65,0.00,,,0.00,18.000000,,2013-03-18 03:53:00,
2013-03-17 20:03:00,7.0,-2.0,-100.00,West,278,2.0,4.0,65,0.00,,,0.00,18.000000,,2013-03-18 04:03:00,
2013-03-17 20:12:00,7.0,-2.0,-100.00,West,278,2.0,4.0,65,0.00,,,0.00,18.000000,,2013-03-18 04:12:00,
2013-03-17 20:22:00,7.0,-2.0,-100.00,West,278,2.0,4.0,65,0.00,,,0.00,18.000000,,2013-03-18 04:22:00,
2013-03-17 20:52:00,6.0,-2.0,-100.00,West,275,1.0,3.0,69,0.00,,,0.00,0.000000,,2013-03-18 04:52:00,
2013-03-17 21:02:00,6.0,-2.0,-100.00,West,275,1.0,3.0,69,0.00,,,0.00,0.000000,,2013-03-18 05:02:00,
2013-03-17 21:12:00,6.0,-2.0,-100.00,West,275,1.0,3.0,69,0.00,,,0.00,0.000000,,2013-03-18 05:12:00,
2013-03-17 21:22:00,6.0,-2.0,-100.00,West,275,1.0,3.0,69,0.00,,,0.00,0.000000,,2013-03-18 05:22:00,
2013-03-17 21:32:00,6.0,-2.0,-100.00,West,275,1.0,3.0,69,0.00,,,0.00,0.000000,,2013-03-18 05:32:00,
2013-03-17 21:52:00,5.0,-2.0,-100.00,West,280,2.0,4.0,71,0.00,,,0.00,0.000000,,2013-03-18 05:52:00,
2013-03-17 22:02:00,5.0,-2.0,-100.00,West,280,2.0,4.0,71,0.00,,,0.00,0.000000,,2013-03-18 06:02:00,
2013-03-17 22:12:00,5.0,-2.0,-100.00,West,280,2.0,4.0,71,0.00,,,0.00,0.000000,,2013-03-18 06:12:00,
2013-03-17 22:22:00,5.0,-2.0,-100.00,West,280,2.0,4.0,71,0.00,,,0.00,0.000000,,2013-03-18 06:22:00,
2013-03-17 22:32:00,5.0,-2.0,-100.00,West,280,2.0,4.0,71,0.00,,,0.00,0.000000,,2013-03-18 06:32:00,
2013-03-17 22:52:00,5.0,-2.0,-100.00,WSW,255,0.0,2.0,71,0.00,,,0.00,0.000000,,2013-03-18 06:52:00,
2013-03-17 23:02:00,5.0,-2.0,-100.00,WSW,255,0.0,2.0,71,0.00,,,0.00,0.000000,,2013-03-18 07:02:00,
2013-03-17 23:12:00,5.0,-2.0,-100.00,WSW,255,0.0,2.0,71,0.00,,,0.00,0.000000,,2013-03-18 07:12:00,
2013-03-17 23:22:00,5.0,-2.0,-100.00,WSW,255,0.0,2.0,71,0.00,,,0.00,0.000000,,2013-03-18 07:22:00,
2013-03-17 23:31:00,5.0,-2.0,-100.00,WSW,255,0.0,2.0,71,0.00,,,0.00,0.000000,,2013-03-18 07:31:00,
2013-03-17 23:52:00,5.0,-3.0,-100.00,West,273,1.0,3.0,70,0.00,,,0.00,0.000000,,2013-03-18 07:52:00,